Sullivan, Maine
Current Conditions -  °F | °C
As of 1:15 PM on Tuesday 21 Oct 2014 (Local Time) from KBHB Reporting Station
Overcast Overcast  
Wind Chill: 54°   Ceiling: 5500
Heat Index: 54°   Visibility: 10mi
Dew Point: 48°   Wind: 5mph
Humidity: 82%   Direction: 60°ENE
Pressure: 30.08"   Gusts: NA
Location:  44.52°N, 68.2°W
Report Text: KBHB 211715Z AUTO 06004KT 10SM OVC055 12/09 A3008 RMK AO1
Loading
Personal Weather Stations






























Interactive Weather Map
Tropical Storm Tracking
New forecast layout! Learn more

10-Day Weather Forecast

Advertisements
Track Severe Weather on mobile